createdAt,value
2022-09-05T00:00:02.857Z,97621.94
2022-09-05T00:02:39.281Z,97615.19
2022-09-05T00:05:41.303Z,97614.56
2022-09-05T00:08:51.411Z,97616.78
2022-09-05T00:11:41.126Z,97607.56
2022-09-05T00:15:14.379Z,97612.44
2022-09-05T00:18:09.514Z,97611.16
2022-09-05T00:24:25.189Z,97610.66
2022-09-05T00:24:27.844Z,97606.44
2022-09-05T00:27:01.477Z,97604.50
2022-09-05T00:31:05.440Z,97605.31
2022-09-05T00:33:01.502Z,97605.72
2022-09-05T00:35:49.563Z,97608.56
2022-09-05T00:38:22.323Z,97603.28
2022-09-05T00:40:57.026Z,97602.25
2022-09-05T00:43:27.743Z,97600.78
2022-09-05T00:46:16.586Z,97608.91
2022-09-05T00:48:52.627Z,97600.94
2022-09-05T00:51:36.333Z,97601.53
2022-09-05T00:54:34.210Z,97602.34
2022-09-05T00:57:38.936Z,97603.56
2022-09-05T01:00:21.285Z,97592.88
2022-09-05T01:03:31.370Z,97604.69
2022-09-05T01:06:25.938Z,97605.97
2022-09-05T01:09:07.618Z,97608.25
2022-09-05T01:12:05.973Z,97604.69
2022-09-05T01:14:51.340Z,97611.19
2022-09-05T01:17:23.840Z,97603.84
2022-09-05T01:20:19.535Z,97609.59
2022-09-05T01:23:08.293Z,97601.41
2022-09-05T01:25:55.375Z,97606.72
2022-09-05T01:29:17.209Z,97604.69
2022-09-05T01:31:50.242Z,97602.81
2022-09-05T01:34:31.326Z,97603.00
2022-09-05T01:37:02.576Z,97608.72
2022-09-05T01:40:12.289Z,97609.06
2022-09-05T01:42:49.787Z,97603.34
2022-09-05T01:45:25.076Z,97605.38
2022-09-05T01:48:16.789Z,97597.59
2022-09-05T01:51:28.274Z,97607.78
2022-09-05T01:54:25.722Z,97606.88
2022-09-05T01:57:19.704Z,97593.81
2022-09-05T01:59:56.199Z,97600.97
2022-09-05T02:02:32.610Z,97601.34
2022-09-05T02:05:12.322Z,97603.81
2022-09-05T02:08:16.099Z,97601.16
2022-09-05T02:11:07.850Z,97597.50
2022-09-05T02:13:34.354Z,97598.06
2022-09-05T02:16:07.006Z,97600.34
2022-09-05T02:19:08.976Z,97600.53
2022-09-05T02:21:57.265Z,97597.06
2022-09-05T02:24:34.599Z,97599.91
2022-09-05T02:27:37.408Z,97611.31
2022-09-05T02:30:09.581Z,97602.75
2022-09-05T02:32:36.061Z,97606.03
2022-09-05T02:35:22.760Z,97595.81
2022-09-05T02:39:09.206Z,97596.19
2022-09-05T02:45:05.997Z,97597.66
2022-09-05T02:45:20.117Z,97597.59
2022-09-05T02:47:22.556Z,97601.41
2022-09-05T02:53:35.102Z,97601.38
2022-09-05T02:57:24.796Z,97599.88
2022-09-05T02:57:34.403Z,97603.66
2022-09-05T02:59:09.090Z,97596.09
2022-09-05T03:02:24.996Z,97597.91
2022-09-05T03:05:08.472Z,97599.56
2022-09-05T03:07:47.002Z,97596.31
2022-09-05T03:10:53.564Z,97592.66
2022-09-05T03:13:48.758Z,97602.13
2022-09-05T03:16:51.887Z,97591.13
2022-09-05T03:19:46.219Z,97594.31
2022-09-05T03:22:37.761Z,97586.88
2022-09-05T03:25:13.334Z,97595.25
2022-09-05T03:28:17.424Z,97591.16
2022-09-05T03:31:22.711Z,97589.97
2022-09-05T03:34:14.702Z,97591.78
2022-09-05T03:37:26.706Z,97595.44
2022-09-05T03:40:16.151Z,97590.53
2022-09-05T03:43:02.046Z,97595.88
2022-09-05T03:45:37.246Z,97592.22
2022-09-05T03:48:23.131Z,97597.66
2022-09-05T03:57:06.748Z,97598.00
2022-09-05T03:57:10.815Z,97604.31
2022-09-05T03:57:38.573Z,97602.69
2022-09-05T04:00:11.405Z,97595.84
2022-09-05T04:08:07.090Z,97595.44
2022-09-05T04:08:31.819Z,97592.19
2022-09-05T04:08:54.187Z,97590.53
2022-09-05T04:11:31.831Z,97589.63
2022-09-05T04:14:02.750Z,97599.34
2022-09-05T04:16:41.527Z,97595.63
2022-09-05T04:19:28.915Z,97589.94
2022-09-05T04:22:21.998Z,97596.06
2022-09-05T04:25:45.548Z,97608.22
2022-09-05T04:28:18.406Z,97605.25
2022-09-05T04:30:52.724Z,97609.16
2022-09-05T04:33:54.656Z,97610.16
2022-09-05T04:36:25.767Z,97602.66
2022-09-05T04:39:19.783Z,97614.25
2022-09-05T04:42:02.853Z,97614.31
2022-09-05T04:44:45.748Z,97612.34
2022-09-05T04:47:43.499Z,97610.31
2022-09-05T04:50:15.625Z,97611.94
2022-09-05T04:53:27.334Z,97620.09
2022-09-05T04:55:57.862Z,97615.13
2022-09-05T04:58:42.072Z,97617.44
2022-09-05T05:06:05.462Z,97625.56
2022-09-05T05:06:13.726Z,97620.91
2022-09-05T05:07:18.069Z,97636.78
2022-09-05T05:10:25.543Z,97636.66
2022-09-05T05:17:57.935Z,97630.16
2022-09-05T05:18:07.221Z,97631.00
2022-09-05T05:19:43.009Z,97634.25
2022-09-05T05:22:17.098Z,97638.41
2022-09-05T05:24:47.523Z,97637.19
2022-09-05T05:27:27.915Z,97634.16
2022-09-05T05:30:02.002Z,97644.25
2022-09-05T05:32:45.456Z,97638.41
2022-09-05T05:35:16.295Z,97634.19
2022-09-05T05:37:55.232Z,97631.84
2022-09-05T05:40:26.776Z,97639.28
2022-09-05T05:43:16.495Z,97635.81
2022-09-05T05:45:43.210Z,97636.63
2022-09-05T05:48:19.047Z,97634.22
2022-09-05T05:50:52.687Z,97634.09
2022-09-05T05:53:43.635Z,97634.56
2022-09-05T05:56:14.399Z,97640.94
2022-09-05T05:59:22.645Z,97641.41
2022-09-05T06:02:15.815Z,97652.19
2022-09-05T06:05:03.728Z,97654.81
2022-09-05T06:09:12.757Z,97650.03
2022-09-05T06:14:51.476Z,97650.78
2022-09-05T06:15:01.180Z,97652.13
2022-09-05T06:16:39.872Z,97654.03
2022-09-05T06:22:05.474Z,97649.34
2022-09-05T06:22:46.437Z,97660.16
2022-09-05T06:25:35.319Z,97656.66
2022-09-05T06:28:19.677Z,97651.47
2022-09-05T06:31:21.131Z,97646.25
2022-09-05T06:33:57.519Z,97650.66
2022-09-05T06:36:45.786Z,97651.91
2022-09-05T06:39:37.452Z,97650.41
2022-09-05T06:42:30.564Z,97655.59
2022-09-05T06:45:29.735Z,97649.16
2022-09-05T06:48:04.320Z,97656.78
2022-09-05T06:51:07.805Z,97661.25
2022-09-05T06:54:01.035Z,97659.00
2022-09-05T06:56:40.091Z,97661.28
2022-09-05T06:59:25.357Z,97658.66
2022-09-05T07:02:08.667Z,97654.34
2022-09-05T07:05:24.508Z,97649.66
2022-09-05T07:07:36.810Z,97650.75
2022-09-05T07:10:28.196Z,97648.31
2022-09-05T07:13:15.183Z,97646.47
2022-09-05T07:16:10.772Z,97644.47
2022-09-05T07:18:43.685Z,97647.13
2022-09-05T07:21:26.646Z,97645.22
2022-09-05T07:24:09.435Z,97654.50
2022-09-05T07:26:53.869Z,97650.69
2022-09-05T07:29:30.121Z,97655.69
2022-09-05T07:31:59.525Z,97657.34
2022-09-05T07:34:30.027Z,97651.94
2022-09-05T07:37:14.316Z,97657.03
2022-09-05T07:39:54.778Z,97650.69
2022-09-05T07:42:27.002Z,97658.69
2022-09-05T07:45:00.391Z,97654.06
2022-09-05T07:47:28.476Z,97654.41
2022-09-05T07:50:41.529Z,97650.50
2022-09-05T07:56:49.702Z,97663.16
2022-09-05T07:57:06.273Z,97653.63
2022-09-05T07:58:22.053Z,97662.00
2022-09-05T08:00:53.539Z,97655.72
2022-09-05T08:03:26.208Z,97650.25
2022-09-05T08:05:58.040Z,97649.59
2022-09-05T08:08:28.994Z,97646.00
2022-09-05T08:11:24.843Z,97642.00
2022-09-05T08:14:10.480Z,97642.38
2022-09-05T08:16:43.197Z,97641.38
2022-09-05T08:19:25.132Z,97651.50
2022-09-05T08:21:52.891Z,97646.47
2022-09-05T08:24:28.754Z,97641.66
2022-09-05T08:27:05.268Z,97647.03
2022-09-05T08:29:40.020Z,97641.41
2022-09-05T08:32:09.336Z,97648.69
2022-09-05T08:34:47.726Z,97645.19
2022-09-05T08:37:21.965Z,97645.38
2022-09-05T08:39:54.246Z,97643.06
2022-09-05T08:45:56.536Z,97645.59
2022-09-05T08:46:41.200Z,97636.25
2022-09-05T08:49:37.593Z,97641.03
2022-09-05T08:52:26.260Z,97640.56
2022-09-05T08:55:20.840Z,97640.06
2022-09-05T08:58:00.175Z,97635.78
2022-09-05T09:00:31.425Z,97630.34
2022-09-05T09:03:13.591Z,97631.94
2022-09-05T09:06:12.517Z,97620.59
2022-09-05T09:09:05.148Z,97621.94
2022-09-05T09:11:38.975Z,97627.66
2022-09-05T09:14:31.844Z,97621.13
2022-09-05T09:17:07.214Z,97620.06
2022-09-05T09:19:46.467Z,97626.00
2022-09-05T09:22:28.111Z,97626.47
2022-09-05T09:25:18.405Z,97615.31
2022-09-05T09:28:48.275Z,97623.28
2022-09-05T09:31:22.239Z,97615.06
2022-09-05T09:33:57.830Z,97609.66
2022-09-05T09:36:51.742Z,97610.03
2022-09-05T09:39:37.173Z,97606.50
2022-09-05T09:42:33.795Z,97600.94
2022-09-05T09:45:26.157Z,97597.16
2022-09-05T09:48:10.819Z,97589.22
2022-09-05T09:51:00.709Z,97598.31
2022-09-05T09:53:37.718Z,97593.31
2022-09-05T09:56:22.602Z,97581.22
2022-09-05T09:58:55.080Z,97588.91
2022-09-05T10:01:51.991Z,97584.72
2022-09-05T10:10:36.188Z,97584.44
2022-09-05T10:10:46.527Z,97577.63
2022-09-05T10:10:52.716Z,97592.38
2022-09-05T10:13:18.133Z,97581.72
2022-09-05T10:16:24.458Z,97581.53
2022-09-05T10:19:05.173Z,97572.06
2022-09-05T10:21:43.042Z,97589.66
2022-09-05T10:24:24.830Z,97579.63
2022-09-05T10:27:13.878Z,97572.38
2022-09-05T10:29:46.600Z,97569.88
2022-09-05T10:35:06.957Z,97566.59
2022-09-05T10:35:42.701Z,97567.69
2022-09-05T10:38:18.565Z,97567.06
2022-09-05T10:41:20.074Z,97571.88
2022-09-05T10:43:39.373Z,97561.31
2022-09-05T10:46:49.606Z,97565.13
2022-09-05T10:49:16.551Z,97557.09
2022-09-05T10:51:51.832Z,97561.00
2022-09-05T10:54:43.193Z,97547.13
2022-09-05T10:57:39.236Z,97540.31
2022-09-05T11:02:20.740Z,97538.91
2022-09-05T11:03:41.406Z,97547.28
2022-09-05T11:06:13.429Z,97536.75
2022-09-05T11:08:45.316Z,97537.38
2022-09-05T11:11:30.880Z,97543.88
2022-09-05T11:14:04.247Z,97536.34
2022-09-05T11:16:37.371Z,97537.78
2022-09-05T11:19:20.555Z,97532.16
2022-09-05T11:22:23.088Z,97529.09
2022-09-05T11:24:58.023Z,97534.72
2022-09-05T11:27:32.370Z,97527.44
2022-09-05T11:30:06.769Z,97512.69
2022-09-05T11:36:56.801Z,97514.66
2022-09-05T11:39:53.713Z,97510.78
2022-09-05T11:39:59.728Z,97511.91
2022-09-05T11:41:45.828Z,97502.44
2022-09-05T11:44:29.872Z,97503.63
2022-09-05T11:47:28.020Z,97507.31
2022-09-05T11:50:15.219Z,97507.63
2022-09-05T11:53:03.913Z,97494.63
2022-09-05T11:55:36.344Z,97504.91
2022-09-05T11:58:43.269Z,97500.19
2022-09-05T12:01:43.106Z,97500.22
2022-09-05T12:04:20.597Z,97489.22
2022-09-05T12:07:03.165Z,97490.72
2022-09-05T12:09:53.441Z,97493.38
2022-09-05T12:12:41.585Z,97494.38
2022-09-05T12:15:25.182Z,97491.13
2022-09-05T12:18:30.807Z,97485.78
2022-09-05T12:21:19.776Z,97501.91
2022-09-05T12:24:11.615Z,97487.94
2022-09-05T12:27:43.207Z,97488.53
2022-09-05T12:29:39.895Z,97488.28
2022-09-05T12:40:40.362Z,97482.19
2022-09-05T12:41:42.041Z,97479.47
2022-09-05T12:41:42.270Z,97475.56
2022-09-05T12:42:14.565Z,97480.34
2022-09-05T12:44:55.310Z,97484.56
2022-09-05T12:47:24.015Z,97481.31
2022-09-05T12:50:14.351Z,97478.25
2022-09-05T12:52:44.755Z,97486.00
2022-09-05T12:55:17.375Z,97489.94
2022-09-05T13:02:56.590Z,97484.47
2022-09-05T13:03:01.186Z,97473.81
2022-09-05T13:03:32.070Z,97475.66
2022-09-05T13:06:09.556Z,97478.72
2022-09-05T13:08:59.481Z,97481.34
2022-09-05T13:14:47.524Z,97481.28
2022-09-05T13:14:57.343Z,97479.66
2022-09-05T13:17:10.516Z,97468.28
2022-09-05T13:19:45.732Z,97477.16
2022-09-05T13:22:14.946Z,97472.19
2022-09-05T13:24:46.630Z,97463.00
2022-09-05T13:27:25.027Z,97464.59
2022-09-05T13:31:44.063Z,97454.63
2022-09-05T13:38:01.344Z,97453.25
2022-09-05T13:38:11.856Z,97452.25
2022-09-05T13:39:28.441Z,97456.31
2022-09-05T13:41:59.587Z,97457.78
2022-09-05T13:44:28.229Z,97456.75
2022-09-05T13:47:28.843Z,97449.78
2022-09-05T13:50:05.194Z,97441.91
2022-09-05T13:52:35.730Z,97439.50
2022-09-05T13:55:02.186Z,97431.03
2022-09-05T13:57:45.400Z,97437.31
2022-09-05T14:00:26.720Z,97428.19
2022-09-05T14:03:38.042Z,97417.47
2022-09-05T14:10:08.255Z,97421.50
2022-09-05T14:12:50.073Z,97422.00
2022-09-05T14:15:26.328Z,97417.47
2022-09-05T14:18:01.260Z,97417.88
2022-09-05T14:20:50.578Z,97407.09
2022-09-05T14:23:18.271Z,97410.00
2022-09-05T14:25:53.355Z,97402.50
2022-09-05T14:28:46.664Z,97399.09
2022-09-05T14:35:51.538Z,97402.81
2022-09-05T14:37:51.596Z,97393.44
2022-09-05T14:37:52.622Z,97391.75
2022-09-05T14:40:39.158Z,97386.16
2022-09-05T14:43:30.858Z,97378.47
2022-09-05T14:46:42.593Z,97384.16
2022-09-05T14:49:40.609Z,97384.91
2022-09-05T14:52:35.508Z,97388.31
2022-09-05T14:55:20.046Z,97382.19
2022-09-05T15:02:49.948Z,97376.41
2022-09-05T15:03:00.158Z,97379.38
2022-09-05T15:06:33.037Z,97373.88
2022-09-05T15:11:25.605Z,97370.97
2022-09-05T15:12:24.094Z,97372.91
2022-09-05T15:14:36.400Z,97369.59
2022-09-05T15:17:05.154Z,97380.16
2022-09-05T15:19:54.824Z,97372.13
2022-09-05T15:22:35.330Z,97367.50
2022-09-05T15:25:18.382Z,97367.09
2022-09-05T15:27:46.312Z,97364.47
2022-09-05T15:30:18.772Z,97367.41
2022-09-05T15:32:50.200Z,97370.19
2022-09-05T15:35:36.643Z,97363.03
2022-09-05T15:38:54.276Z,97374.38
2022-09-05T15:41:27.631Z,97364.81
2022-09-05T15:43:59.703Z,97368.19
2022-09-05T15:46:49.412Z,97364.44
2022-09-05T15:49:28.785Z,97370.78
2022-09-05T15:51:57.587Z,97359.97
2022-09-05T15:54:38.621Z,97357.91
2022-09-05T15:57:15.240Z,97357.59
2022-09-05T15:59:49.375Z,97349.72
2022-09-05T16:02:20.264Z,97349.41
2022-09-05T16:08:34.152Z,97358.13
2022-09-05T16:10:35.759Z,97359.06
2022-09-05T16:11:06.096Z,97358.47
2022-09-05T16:13:21.663Z,97351.81
2022-09-05T16:23:13.278Z,97355.69
2022-09-05T16:23:27.780Z,97355.59
2022-09-05T16:23:31.195Z,97360.66
2022-09-05T16:24:59.305Z,97349.66
2022-09-05T16:27:53.386Z,97350.41
2022-09-05T16:30:24.730Z,97348.56
2022-09-05T16:32:56.143Z,97347.22
2022-09-05T16:35:26.526Z,97344.56
2022-09-05T16:38:13.311Z,97344.69
2022-09-05T16:40:50.029Z,97348.25
2022-09-05T16:43:28.487Z,97339.94
2022-09-05T16:46:20.833Z,97333.56
2022-09-05T16:49:12.594Z,97345.00
2022-09-05T16:51:51.171Z,97343.66
2022-09-05T16:54:36.052Z,97333.44
2022-09-05T16:57:07.518Z,97334.28
2022-09-05T16:59:35.991Z,97331.06
2022-09-05T17:02:08.586Z,97330.31
2022-09-05T17:05:02.934Z,97319.78
2022-09-05T17:07:54.939Z,97322.22
2022-09-05T17:10:25.667Z,97319.78
2022-09-05T17:12:56.208Z,97314.41
2022-09-05T17:15:35.118Z,97317.13
2022-09-05T17:18:20.876Z,97316.56
2022-09-05T17:20:54.290Z,97318.66
2022-09-05T17:28:01.131Z,97318.09
2022-09-05T17:29:24.242Z,97303.97
2022-09-05T17:29:38.424Z,97311.59
2022-09-05T17:32:00.334Z,97301.19
2022-09-05T17:34:30.443Z,97314.31
2022-09-05T17:37:11.780Z,97307.22
2022-09-05T17:39:58.116Z,97308.53
2022-09-05T17:42:43.012Z,97313.81
2022-09-05T17:45:17.240Z,97313.72
2022-09-05T17:47:49.720Z,97310.28
2022-09-05T17:50:37.945Z,97316.97
2022-09-05T17:53:26.090Z,97312.56
2022-09-05T17:55:54.975Z,97308.84
2022-09-05T17:58:33.349Z,97315.69
2022-09-05T18:01:19.843Z,97320.66
2022-09-05T18:03:49.468Z,97329.47
2022-09-05T18:06:16.216Z,97323.75
2022-09-05T18:08:45.509Z,97321.16
2022-09-05T18:11:26.094Z,97333.47
2022-09-05T18:14:02.791Z,97331.25
2022-09-05T18:17:36.880Z,97331.09
2022-09-05T18:19:32.518Z,97329.03
2022-09-05T18:22:11.996Z,97330.78
2022-09-05T18:28:05.232Z,97328.25
2022-09-05T18:33:53.611Z,97336.72
2022-09-05T18:35:54.675Z,97338.66
2022-09-05T18:38:29.567Z,97342.81
2022-09-05T18:41:21.714Z,97344.25
2022-09-05T18:44:02.222Z,97345.56
2022-09-05T18:46:46.867Z,97340.31
2022-09-05T18:50:21.794Z,97347.75
2022-09-05T18:52:33.912Z,97344.97
2022-09-05T18:56:09.254Z,97351.31
2022-09-05T18:57:57.895Z,97349.94
2022-09-05T19:00:44.280Z,97341.66
2022-09-05T19:03:20.241Z,97348.81
2022-09-05T19:06:36.412Z,97343.13
2022-09-05T19:08:59.588Z,97345.00
2022-09-05T19:11:34.845Z,97342.97
2022-09-05T19:14:28.929Z,97334.56
2022-09-05T19:17:16.694Z,97330.69
2022-09-05T19:20:30.593Z,97335.81
2022-09-05T19:23:10.185Z,97339.63
2022-09-05T19:25:42.974Z,97334.09
2022-09-05T19:36:58.723Z,97334.78
2022-09-05T19:37:02.707Z,97331.69
2022-09-05T19:37:09.974Z,97330.97
2022-09-05T19:37:29.301Z,97328.94
2022-09-05T19:41:27.099Z,97322.88
2022-09-05T19:47:30.456Z,97319.56
2022-09-05T19:47:37.378Z,97321.78
2022-09-05T19:48:26.248Z,97320.41
2022-09-05T19:50:57.805Z,97317.72
2022-09-05T19:53:24.918Z,97313.34
2022-09-05T19:55:52.361Z,97309.63
2022-09-05T19:58:21.374Z,97315.72
2022-09-05T20:01:01.472Z,97310.84
2022-09-05T20:03:28.694Z,97305.97
2022-09-05T20:06:04.932Z,97306.06
2022-09-05T20:08:35.718Z,97306.69
2022-09-05T20:11:06.776Z,97302.28
2022-09-05T20:13:33.380Z,97314.13
2022-09-05T20:16:01.985Z,97302.53
2022-09-05T20:18:40.179Z,97309.50
2022-09-05T20:21:30.141Z,97304.53
2022-09-05T20:23:58.638Z,97307.31
2022-09-05T20:26:28.575Z,97303.34
2022-09-05T20:29:01.484Z,97308.59
2022-09-05T20:31:33.087Z,97306.50
2022-09-05T20:34:55.215Z,97310.69
2022-09-05T20:43:16.719Z,97308.59
2022-09-05T20:43:16.800Z,97316.47
2022-09-05T20:43:24.005Z,97317.69
2022-09-05T20:46:24.321Z,97317.09
2022-09-05T20:54:04.526Z,97319.19
2022-09-05T20:54:14.294Z,97316.41
2022-09-05T20:54:34.791Z,97317.78
2022-09-05T20:57:12.804Z,97313.66
2022-09-05T20:59:44.321Z,97314.19
2022-09-05T21:02:23.361Z,97310.72
2022-09-05T21:05:06.620Z,97308.50
2022-09-05T21:07:51.232Z,97314.75
2022-09-05T21:10:33.402Z,97310.19
2022-09-05T21:13:52.113Z,97313.81
2022-09-05T21:16:21.964Z,97318.81
2022-09-05T21:18:49.208Z,97319.47
2022-09-05T21:21:30.219Z,97314.34
2022-09-05T21:24:16.780Z,97309.25
2022-09-05T21:26:45.312Z,97320.59
2022-09-05T21:29:11.847Z,97319.97
2022-09-05T21:31:43.850Z,97315.31
2022-09-05T21:34:31.050Z,97318.41
2022-09-05T21:37:07.713Z,97318.66
2022-09-05T21:39:44.813Z,97304.19
2022-09-05T21:43:02.547Z,97312.50
2022-09-05T21:47:49.491Z,97303.91
2022-09-05T21:47:58.242Z,97302.72
2022-09-05T21:50:30.752Z,97295.69
2022-09-05T21:53:45.267Z,97310.31
2022-09-05T21:59:17.483Z,97303.28
2022-09-05T21:59:29.613Z,97305.13
2022-09-05T22:01:20.508Z,97303.94
2022-09-05T22:04:07.458Z,97294.75
2022-09-05T22:06:33.987Z,97293.78
2022-09-05T22:09:13.646Z,97300.88
2022-09-05T22:11:41.244Z,97290.00
2022-09-05T22:14:09.087Z,97287.97
2022-09-05T22:16:38.430Z,97286.94
2022-09-05T22:19:12.238Z,97282.00
2022-09-05T22:21:39.154Z,97270.53
2022-09-05T22:24:08.934Z,97270.78
2022-09-05T22:27:10.934Z,97270.63
2022-09-05T22:29:34.496Z,97270.91
2022-09-05T22:32:01.307Z,97273.47
2022-09-05T22:34:30.884Z,97263.28
2022-09-05T22:36:57.584Z,97262.28
2022-09-05T22:39:37.529Z,97271.91
2022-09-05T22:42:10.159Z,97262.34
2022-09-05T22:44:39.083Z,97264.41
2022-09-05T22:47:09.594Z,97255.44
2022-09-05T22:49:36.706Z,97256.69
2022-09-05T22:52:07.922Z,97266.50
2022-09-05T22:54:35.771Z,97268.81
2022-09-05T22:57:03.634Z,97261.84
2022-09-05T22:59:30.233Z,97262.88
2022-09-05T23:01:56.840Z,97260.00
2022-09-05T23:04:23.873Z,97247.59
2022-09-05T23:06:50.487Z,97256.22
2022-09-05T23:09:17.077Z,97251.78
2022-09-05T23:11:43.613Z,97259.97
2022-09-05T23:14:10.156Z,97264.88
2022-09-05T23:16:36.731Z,97269.53
2022-09-05T23:19:03.355Z,97277.06
2022-09-05T23:21:29.922Z,97275.38
2022-09-05T23:23:56.487Z,97281.06
2022-09-05T23:26:23.239Z,97279.59
2022-09-05T23:28:50.117Z,97278.34
2022-09-05T23:31:16.811Z,97269.75
2022-09-05T23:33:43.419Z,97273.94
2022-09-05T23:36:13.587Z,97261.25
2022-09-05T23:38:43.626Z,97258.38
2022-09-05T23:41:13.035Z,97262.59
2022-09-05T23:43:39.646Z,97253.72
2022-09-05T23:46:06.795Z,97257.31
2022-09-05T23:48:33.620Z,97253.34
2022-09-05T23:51:07.960Z,97250.81
2022-09-05T23:53:34.901Z,97256.81
2022-09-05T23:56:02.694Z,97260.78
2022-09-05T23:58:30.084Z,97260.38
